sensor_id;sensor_type;location;lat;lon;timestamp;temperature;humidity
5868;DHT22;2960;49.142;7.768;2023-05-17T00:00:07;9.60;57.60
5868;DHT22;2960;49.142;7.768;2023-05-17T00:02:35;9.60;57.80
5868;DHT22;2960;49.142;7.768;2023-05-17T00:05:05;9.60;57.80
5868;DHT22;2960;49.142;7.768;2023-05-17T00:07:36;9.50;57.90
5868;DHT22;2960;49.142;7.768;2023-05-17T00:10:04;9.50;58.00
5868;DHT22;2960;49.142;7.768;2023-05-17T00:12:32;9.50;58.10
5868;DHT22;2960;49.142;7.768;2023-05-17T00:14:59;9.50;58.70
5868;DHT22;2960;49.142;7.768;2023-05-17T00:17:26;9.40;58.10
5868;DHT22;2960;49.142;7.768;2023-05-17T00:19:53;9.40;58.20
5868;DHT22;2960;49.142;7.768;2023-05-17T00:22:22;9.40;58.30
5868;DHT22;2960;49.142;7.768;2023-05-17T00:24:49;9.40;58.20
5868;DHT22;2960;49.142;7.768;2023-05-17T00:27:16;9.40;58.30
5868;DHT22;2960;49.142;7.768;2023-05-17T00:29:43;9.40;58.30
5868;DHT22;2960;49.142;7.768;2023-05-17T00:32:10;9.40;58.90
5868;DHT22;2960;49.142;7.768;2023-05-17T00:34:37;9.40;58.40
5868;DHT22;2960;49.142;7.768;2023-05-17T00:37:04;9.40;58.50
5868;DHT22;2960;49.142;7.768;2023-05-17T00:39:33;9.30;58.40
5868;DHT22;2960;49.142;7.768;2023-05-17T00:42:00;9.40;58.50
5868;DHT22;2960;49.142;7.768;2023-05-17T00:44:27;9.40;58.50
5868;DHT22;2960;49.142;7.768;2023-05-17T00:46:54;9.30;58.40
5868;DHT22;2960;49.142;7.768;2023-05-17T00:49:24;9.30;58.40
5868;DHT22;2960;49.142;7.768;2023-05-17T00:51:52;9.30;58.50
5868;DHT22;2960;49.142;7.768;2023-05-17T00:54:19;9.30;58.50
5868;DHT22;2960;49.142;7.768;2023-05-17T00:56:48;9.30;58.60
5868;DHT22;2960;49.142;7.768;2023-05-17T00:59:16;9.30;58.60
5868;DHT22;2960;49.142;7.768;2023-05-17T01:01:46;9.30;58.60
5868;DHT22;2960;49.142;7.768;2023-05-17T01:04:14;9.30;58.70
5868;DHT22;2960;49.142;7.768;2023-05-17T01:06:41;9.30;59.30
5868;DHT22;2960;49.142;7.768;2023-05-17T01:09:08;9.20;58.70
5868;DHT22;2960;49.142;7.768;2023-05-17T01:11:41;9.20;58.70
5868;DHT22;2960;49.142;7.768;2023-05-17T01:14:32;9.20;58.80
5868;DHT22;2960;49.142;7.768;2023-05-17T01:17:09;9.20;58.90
5868;DHT22;2960;49.142;7.768;2023-05-17T01:19:56;9.20;59.00
5868;DHT22;2960;49.142;7.768;2023-05-17T01:22:38;9.10;59.00
5868;DHT22;2960;49.142;7.768;2023-05-17T01:25:26;9.10;59.10
5868;DHT22;2960;49.142;7.768;2023-05-17T01:27:58;9.10;59.20
5868;DHT22;2960;49.142;7.768;2023-05-17T01:30:28;9.00;59.10
5868;DHT22;2960;49.142;7.768;2023-05-17T01:32:57;9.00;59.20
5868;DHT22;2960;49.142;7.768;2023-05-17T01:35:26;9.00;59.10
5868;DHT22;2960;49.142;7.768;2023-05-17T01:37:53;9.00;59.10
5868;DHT22;2960;49.142;7.768;2023-05-17T01:40:21;9.00;59.20
5868;DHT22;2960;49.142;7.768;2023-05-17T01:42:53;9.00;59.20
5868;DHT22;2960;49.142;7.768;2023-05-17T01:45:30;9.00;59.10
5868;DHT22;2960;49.142;7.768;2023-05-17T01:48:11;9.00;59.20
5868;DHT22;2960;49.142;7.768;2023-05-17T01:50:42;9.00;59.20
5868;DHT22;2960;49.142;7.768;2023-05-17T01:53:12;9.00;59.80
5868;DHT22;2960;49.142;7.768;2023-05-17T01:55:46;9.00;59.20
5868;DHT22;2960;49.142;7.768;2023-05-17T01:58:20;9.00;59.20
5868;DHT22;2960;49.142;7.768;2023-05-17T02:00:52;8.90;59.10
5868;DHT22;2960;49.142;7.768;2023-05-17T02:03:21;8.90;59.20
5868;DHT22;2960;49.142;7.768;2023-05-17T02:05:48;8.90;59.10
5868;DHT22;2960;49.142;7.768;2023-05-17T02:08:15;8.90;59.20
5868;DHT22;2960;49.142;7.768;2023-05-17T02:10:43;8.90;59.20
5868;DHT22;2960;49.142;7.768;2023-05-17T02:13:10;8.80;59.20
5868;DHT22;2960;49.142;7.768;2023-05-17T02:15:39;8.80;59.30
5868;DHT22;2960;49.142;7.768;2023-05-17T02:18:06;8.80;59.40
5868;DHT22;2960;49.142;7.768;2023-05-17T02:20:33;8.70;59.30
5868;DHT22;2960;49.142;7.768;2023-05-17T02:23:00;8.80;59.50
5868;DHT22;2960;49.142;7.768;2023-05-17T02:25:27;8.70;59.40
5868;DHT22;2960;49.142;7.768;2023-05-17T02:27:54;8.70;59.40
5868;DHT22;2960;49.142;7.768;2023-05-17T02:30:21;8.70;59.40
5868;DHT22;2960;49.142;7.768;2023-05-17T02:32:50;8.70;59.40
5868;DHT22;2960;49.142;7.768;2023-05-17T02:35:18;8.60;59.40
5868;DHT22;2960;49.142;7.768;2023-05-17T02:37:45;8.60;59.50
5868;DHT22;2960;49.142;7.768;2023-05-17T02:40:12;8.60;59.50
5868;DHT22;2960;49.142;7.768;2023-05-17T02:42:39;8.60;59.60
5868;DHT22;2960;49.142;7.768;2023-05-17T02:45:07;8.60;60.20
5868;DHT22;2960;49.142;7.768;2023-05-17T02:47:34;8.50;59.50
5868;DHT22;2960;49.142;7.768;2023-05-17T02:50:04;8.50;59.50
5868;DHT22;2960;49.142;7.768;2023-05-17T02:52:31;8.50;59.60
5868;DHT22;2960;49.142;7.768;2023-05-17T02:54:58;8.50;59.60
5868;DHT22;2960;49.142;7.768;2023-05-17T02:57:25;8.50;59.60
5868;DHT22;2960;49.142;7.768;2023-05-17T02:59:52;8.40;60.20
5868;DHT22;2960;49.142;7.768;2023-05-17T03:02:19;8.40;59.60
5868;DHT22;2960;49.142;7.768;2023-05-17T03:04:47;8.40;60.30
5868;DHT22;2960;49.142;7.768;2023-05-17T03:07:15;8.40;59.70
5868;DHT22;2960;49.142;7.768;2023-05-17T03:09:42;8.30;59.70
5868;DHT22;2960;49.142;7.768;2023-05-17T03:12:10;8.30;59.80
5868;DHT22;2960;49.142;7.768;2023-05-17T03:14:37;8.30;59.90
5868;DHT22;2960;49.142;7.768;2023-05-17T03:17:04;8.20;59.80
5868;DHT22;2960;49.142;7.768;2023-05-17T03:19:31;8.20;59.90
5868;DHT22;2960;49.142;7.768;2023-05-17T03:21:58;8.20;59.90
5868;DHT22;2960;49.142;7.768;2023-05-17T03:24:27;8.20;59.90
5868;DHT22;2960;49.142;7.768;2023-05-17T03:26:54;8.20;60.00
5868;DHT22;2960;49.142;7.768;2023-05-17T03:29:21;8.10;60.00
5868;DHT22;2960;49.142;7.768;2023-05-17T03:31:48;8.10;60.00
5868;DHT22;2960;49.142;7.768;2023-05-17T03:34:15;8.00;60.00
5868;DHT22;2960;49.142;7.768;2023-05-17T03:36:42;8.00;60.10
5868;DHT22;2960;49.142;7.768;2023-05-17T03:39:09;8.00;60.20
5868;DHT22;2960;49.142;7.768;2023-05-17T03:41:38;8.00;61.10
5868;DHT22;2960;49.142;7.768;2023-05-17T03:44:06;8.00;60.20
5868;DHT22;2960;49.142;7.768;2023-05-17T03:46:33;8.00;61.00
5868;DHT22;2960;49.142;7.768;2023-05-17T03:49:00;8.00;60.30
5868;DHT22;2960;49.142;7.768;2023-05-17T03:51:27;7.90;60.20
5868;DHT22;2960;49.142;7.768;2023-05-17T03:53:57;7.90;60.20
5868;DHT22;2960;49.142;7.768;2023-05-17T03:56:25;7.90;60.20
5868;DHT22;2960;49.142;7.768;2023-05-17T03:58:54;7.90;60.20
5868;DHT22;2960;49.142;7.768;2023-05-17T04:01:21;7.90;60.30
5868;DHT22;2960;49.142;7.768;2023-05-17T04:03:48;7.90;60.30
5868;DHT22;2960;49.142;7.768;2023-05-17T04:06:15;7.90;60.50
5868;DHT22;2960;49.142;7.768;2023-05-17T04:08:42;7.90;60.60
5868;DHT22;2960;49.142;7.768;2023-05-17T04:11:10;7.90;60.60
5868;DHT22;2960;49.142;7.768;2023-05-17T04:13:38;7.80;60.40
5868;DHT22;2960;49.142;7.768;2023-05-17T04:16:07;7.90;60.60
5868;DHT22;2960;49.142;7.768;2023-05-17T04:18:35;7.80;60.50
5868;DHT22;2960;49.142;7.768;2023-05-17T04:21:03;7.80;60.50
5868;DHT22;2960;49.142;7.768;2023-05-17T04:23:31;7.80;60.50
5868;DHT22;2960;49.142;7.768;2023-05-17T04:25:59;7.80;60.50
5868;DHT22;2960;49.142;7.768;2023-05-17T04:28:26;7.80;60.50
5868;DHT22;2960;49.142;7.768;2023-05-17T04:30:55;7.80;60.60
5868;DHT22;2960;49.142;7.768;2023-05-17T04:33:24;7.90;60.70
5868;DHT22;2960;49.142;7.768;2023-05-17T04:35:54;7.90;60.70
5868;DHT22;2960;49.142;7.768;2023-05-17T04:38:21;7.90;60.80
5868;DHT22;2960;49.142;7.768;2023-05-17T04:40:49;7.90;60.70
5868;DHT22;2960;49.142;7.768;2023-05-17T04:43:16;7.90;60.70
5868;DHT22;2960;49.142;7.768;2023-05-17T04:45:43;7.90;60.70
5868;DHT22;2960;49.142;7.768;2023-05-17T04:48:11;8.00;60.90
5868;DHT22;2960;49.142;7.768;2023-05-17T04:50:39;8.00;61.00
5868;DHT22;2960;49.142;7.768;2023-05-17T04:53:06;8.00;61.00
5868;DHT22;2960;49.142;7.768;2023-05-17T04:55:33;8.00;61.10
5868;DHT22;2960;49.142;7.768;2023-05-17T04:58:01;8.10;61.10
5868;DHT22;2960;49.142;7.768;2023-05-17T05:00:28;8.10;61.10
5868;DHT22;2960;49.142;7.768;2023-05-17T05:02:55;8.20;61.20
5868;DHT22;2960;49.142;7.768;2023-05-17T05:05:23;8.20;61.30
5868;DHT22;2960;49.142;7.768;2023-05-17T05:07:52;8.30;62.30
5868;DHT22;2960;49.142;7.768;2023-05-17T05:10:19;8.30;61.70
5868;DHT22;2960;49.142;7.768;2023-05-17T05:12:46;8.40;61.80
5868;DHT22;2960;49.142;7.768;2023-05-17T05:15:14;8.40;61.80
5868;DHT22;2960;49.142;7.768;2023-05-17T05:17:42;8.50;61.90
5868;DHT22;2960;49.142;7.768;2023-05-17T05:20:09;8.60;61.90
5868;DHT22;2960;49.142;7.768;2023-05-17T05:22:37;8.70;62.00
5868;DHT22;2960;49.142;7.768;2023-05-17T05:25:06;8.80;62.00
5868;DHT22;2960;49.142;7.768;2023-05-17T05:27:34;8.90;62.80
5868;DHT22;2960;49.142;7.768;2023-05-17T05:30:01;9.00;62.00
5868;DHT22;2960;49.142;7.768;2023-05-17T05:32:29;9.10;62.00
5868;DHT22;2960;49.142;7.768;2023-05-17T05:34:56;9.20;62.00
5868;DHT22;2960;49.142;7.768;2023-05-17T05:37:23;9.40;62.10
5868;DHT22;2960;49.142;7.768;2023-05-17T05:39:50;9.50;62.00
5868;DHT22;2960;49.142;7.768;2023-05-17T05:42:18;9.60;62.10
5868;DHT22;2960;49.142;7.768;2023-05-17T05:44:45;9.70;62.00
5868;DHT22;2960;49.142;7.768;2023-05-17T05:47:12;9.80;62.10
5868;DHT22;2960;49.142;7.768;2023-05-17T05:49:40;9.90;62.10
5868;DHT22;2960;49.142;7.768;2023-05-17T05:52:07;10.00;61.00
5868;DHT22;2960;49.142;7.768;2023-05-17T05:54:34;10.20;61.10
5868;DHT22;2960;49.142;7.768;2023-05-17T05:57:04;10.30;61.10
5868;DHT22;2960;49.142;7.768;2023-05-17T05:59:32;10.40;61.10
5868;DHT22;2960;49.142;7.768;2023-05-17T06:01:59;10.50;61.10
5868;DHT22;2960;49.142;7.768;2023-05-17T06:04:27;10.60;61.00
5868;DHT22;2960;49.142;7.768;2023-05-17T06:06:54;10.70;60.90
5868;DHT22;2960;49.142;7.768;2023-05-17T06:09:21;10.80;60.80
5868;DHT22;2960;49.142;7.768;2023-05-17T06:11:51;10.90;60.80
5868;DHT22;2960;49.142;7.768;2023-05-17T06:14:18;11.00;60.70
5868;DHT22;2960;49.142;7.768;2023-05-17T06:16:47;11.20;60.70
5868;DHT22;2960;49.142;7.768;2023-05-17T06:19:14;11.30;60.50
5868;DHT22;2960;49.142;7.768;2023-05-17T06:21:41;11.40;60.40
5868;DHT22;2960;49.142;7.768;2023-05-17T06:24:08;11.50;60.90
5868;DHT22;2960;49.142;7.768;2023-05-17T06:26:36;11.60;60.00
5868;DHT22;2960;49.142;7.768;2023-05-17T06:29:03;11.70;59.90
5868;DHT22;2960;49.142;7.768;2023-05-17T06:31:30;11.80;59.70
5868;DHT22;2960;49.142;7.768;2023-05-17T06:33:59;11.90;59.70
5868;DHT22;2960;49.142;7.768;2023-05-17T06:36:26;12.00;59.60
5868;DHT22;2960;49.142;7.768;2023-05-17T06:38:53;12.10;60.10
5868;DHT22;2960;49.142;7.768;2023-05-17T06:41:20;12.20;60.00
5868;DHT22;2960;49.142;7.768;2023-05-17T06:43:47;12.30;59.40
5868;DHT22;2960;49.142;7.768;2023-05-17T06:46:14;12.40;59.40
5868;DHT22;2960;49.142;7.768;2023-05-17T06:48:41;12.50;59.30
5868;DHT22;2960;49.142;7.768;2023-05-17T06:51:10;12.60;59.20
5868;DHT22;2960;49.142;7.768;2023-05-17T06:53:37;12.70;59.10
5868;DHT22;2960;49.142;7.768;2023-05-17T06:56:04;12.80;58.90
5868;DHT22;2960;49.142;7.768;2023-05-17T06:58:32;12.90;58.80
5868;DHT22;2960;49.142;7.768;2023-05-17T07:01:00;13.00;59.20
5868;DHT22;2960;49.142;7.768;2023-05-17T07:03:27;13.10;58.30
5868;DHT22;2960;49.142;7.768;2023-05-17T07:05:56;13.20;58.20
5868;DHT22;2960;49.142;7.768;2023-05-17T07:08:25;13.30;58.20
5868;DHT22;2960;49.142;7.768;2023-05-17T07:10:52;13.40;58.10
5868;DHT22;2960;49.142;7.768;2023-05-17T07:13:20;13.50;58.00
5868;DHT22;2960;49.142;7.768;2023-05-17T07:15:47;13.70;57.80
5868;DHT22;2960;49.142;7.768;2023-05-17T07:18:14;13.70;57.40
5868;DHT22;2960;49.142;7.768;2023-05-17T07:20:42;13.80;57.90
5868;DHT22;2960;49.142;7.768;2023-05-17T07:23:09;13.90;57.00
5868;DHT22;2960;49.142;7.768;2023-05-17T07:25:37;14.00;56.50
5868;DHT22;2960;49.142;7.768;2023-05-17T07:28:05;14.00;56.20
5868;DHT22;2960;49.142;7.768;2023-05-17T07:30:33;14.10;56.20
5868;DHT22;2960;49.142;7.768;2023-05-17T07:33:00;14.20;56.20
5868;DHT22;2960;49.142;7.768;2023-05-17T07:35:27;14.20;56.10
5868;DHT22;2960;49.142;7.768;2023-05-17T07:37:54;14.40;56.00
5868;DHT22;2960;49.142;7.768;2023-05-17T07:40:21;14.40;55.80
5868;DHT22;2960;49.142;7.768;2023-05-17T07:42:50;14.50;55.70
5868;DHT22;2960;49.142;7.768;2023-05-17T07:45:17;14.50;55.50
5868;DHT22;2960;49.142;7.768;2023-05-17T07:47:45;14.50;55.40
5868;DHT22;2960;49.142;7.768;2023-05-17T07:50:12;14.50;55.40
5868;DHT22;2960;49.142;7.768;2023-05-17T07:52:39;14.50;55.90
5868;DHT22;2960;49.142;7.768;2023-05-17T07:55:07;14.50;55.30
5868;DHT22;2960;49.142;7.768;2023-05-17T07:57:37;14.50;55.00
5868;DHT22;2960;49.142;7.768;2023-05-17T08:00:07;14.50;55.10
5868;DHT22;2960;49.142;7.768;2023-05-17T08:02:37;14.50;54.70
5868;DHT22;2960;49.142;7.768;2023-05-17T08:05:04;14.50;54.80
5868;DHT22;2960;49.142;7.768;2023-05-17T08:07:33;14.50;54.70
5868;DHT22;2960;49.142;7.768;2023-05-17T08:10:00;14.50;54.60
5868;DHT22;2960;49.142;7.768;2023-05-17T08:12:27;14.50;54.60
5868;DHT22;2960;49.142;7.768;2023-05-17T08:14:54;14.50;54.40
5868;DHT22;2960;49.142;7.768;2023-05-17T08:17:22;14.60;54.30
5868;DHT22;2960;49.142;7.768;2023-05-17T08:19:50;14.60;54.00
5868;DHT22;2960;49.142;7.768;2023-05-17T08:22:17;14.70;54.00
5868;DHT22;2960;49.142;7.768;2023-05-17T08:24:45;14.80;54.00
5868;DHT22;2960;49.142;7.768;2023-05-17T08:27:12;14.80;53.80
5868;DHT22;2960;49.142;7.768;2023-05-17T08:29:40;14.80;54.20
5868;DHT22;2960;49.142;7.768;2023-05-17T08:32:07;14.90;54.20
5868;DHT22;2960;49.142;7.768;2023-05-17T08:34:35;14.90;53.50
5868;DHT22;2960;49.142;7.768;2023-05-17T08:37:03;14.90;53.50
5868;DHT22;2960;49.142;7.768;2023-05-17T08:39:30;14.90;53.50
5868;DHT22;2960;49.142;7.768;2023-05-17T08:41:58;14.90;53.30
5868;DHT22;2960;49.142;7.768;2023-05-17T08:44:27;14.90;53.30
5868;DHT22;2960;49.142;7.768;2023-05-17T08:46:55;14.90;53.20
5868;DHT22;2960;49.142;7.768;2023-05-17T08:49:24;14.90;53.00
5868;DHT22;2960;49.142;7.768;2023-05-17T08:51:56;14.90;53.00
5868;DHT22;2960;49.142;7.768;2023-05-17T08:54:25;15.00;53.10
5868;DHT22;2960;49.142;7.768;2023-05-17T08:56:55;15.00;53.00
5868;DHT22;2960;49.142;7.768;2023-05-17T08:59:25;15.10;52.90
5868;DHT22;2960;49.142;7.768;2023-05-17T09:01:58;15.10;52.70
5868;DHT22;2960;49.142;7.768;2023-05-17T09:04:27;15.20;52.40
5868;DHT22;2960;49.142;7.768;2023-05-17T09:06:56;15.20;52.40
5868;DHT22;2960;49.142;7.768;2023-05-17T09:09:24;15.20;52.90
5868;DHT22;2960;49.142;7.768;2023-05-17T09:11:51;15.30;52.30
5868;DHT22;2960;49.142;7.768;2023-05-17T09:14:18;15.30;52.20
5868;DHT22;2960;49.142;7.768;2023-05-17T09:16:46;15.30;52.10
5868;DHT22;2960;49.142;7.768;2023-05-17T09:19:15;15.30;52.00
5868;DHT22;2960;49.142;7.768;2023-05-17T09:21:45;15.20;51.90
5868;DHT22;2960;49.142;7.768;2023-05-17T09:24:14;15.20;51.90
5868;DHT22;2960;49.142;7.768;2023-05-17T09:26:45;15.20;51.80
5868;DHT22;2960;49.142;7.768;2023-05-17T09:29:13;15.20;51.90
5868;DHT22;2960;49.142;7.768;2023-05-17T09:31:41;15.10;51.80
5868;DHT22;2960;49.142;7.768;2023-05-17T09:34:09;15.10;51.90
5868;DHT22;2960;49.142;7.768;2023-05-17T09:36:37;15.10;52.40
5868;DHT22;2960;49.142;7.768;2023-05-17T09:39:08;15.10;51.90
5868;DHT22;2960;49.142;7.768;2023-05-17T09:41:42;15.10;51.90
5868;DHT22;2960;49.142;7.768;2023-05-17T09:44:11;15.10;51.90
5868;DHT22;2960;49.142;7.768;2023-05-17T09:46:41;15.10;51.90
5868;DHT22;2960;49.142;7.768;2023-05-17T09:49:10;15.10;51.90
5868;DHT22;2960;49.142;7.768;2023-05-17T09:51:40;15.10;51.80
5868;DHT22;2960;49.142;7.768;2023-05-17T09:54:08;15.10;51.80
5868;DHT22;2960;49.142;7.768;2023-05-17T09:56:36;15.10;51.80
5868;DHT22;2960;49.142;7.768;2023-05-17T09:59:11;15.10;51.70
5868;DHT22;2960;49.142;7.768;2023-05-17T10:01:41;15.00;51.60
5868;DHT22;2960;49.142;7.768;2023-05-17T10:04:10;15.00;51.70
5868;DHT22;2960;49.142;7.768;2023-05-17T10:06:38;15.00;51.60
5868;DHT22;2960;49.142;7.768;2023-05-17T10:09:11;15.00;51.50
5868;DHT22;2960;49.142;7.768;2023-05-17T10:11:40;15.00;51.40
5868;DHT22;2960;49.142;7.768;2023-05-17T10:14:12;15.00;51.40
5868;DHT22;2960;49.142;7.768;2023-05-17T10:16:44;15.00;51.40
5868;DHT22;2960;49.142;7.768;2023-05-17T10:19:12;15.00;51.40
5868;DHT22;2960;49.142;7.768;2023-05-17T10:21:40;15.00;51.50
5868;DHT22;2960;49.142;7.768;2023-05-17T10:24:09;15.10;51.30
5868;DHT22;2960;49.142;7.768;2023-05-17T10:26:37;15.10;51.20
5868;DHT22;2960;49.142;7.768;2023-05-17T10:29:04;15.10;51.20
5868;DHT22;2960;49.142;7.768;2023-05-17T10:31:33;15.00;51.00
5868;DHT22;2960;49.142;7.768;2023-05-17T10:34:01;15.00;50.90
5868;DHT22;2960;49.142;7.768;2023-05-17T10:36:31;15.00;50.90
5868;DHT22;2960;49.142;7.768;2023-05-17T10:38:59;15.00;50.90
5868;DHT22;2960;49.142;7.768;2023-05-17T10:41:31;15.10;51.00
5868;DHT22;2960;49.142;7.768;2023-05-17T10:44:02;15.10;50.90
5868;DHT22;2960;49.142;7.768;2023-05-17T10:46:30;15.10;50.80
5868;DHT22;2960;49.142;7.768;2023-05-17T10:49:00;15.20;50.60
5868;DHT22;2960;49.142;7.768;2023-05-17T10:51:30;15.20;50.40
5868;DHT22;2960;49.142;7.768;2023-05-17T10:54:06;15.30;50.30
5868;DHT22;2960;49.142;7.768;2023-05-17T10:56:38;15.30;50.20
5868;DHT22;2960;49.142;7.768;2023-05-17T10:59:21;15.40;49.90
5868;DHT22;2960;49.142;7.768;2023-05-17T11:01:50;15.40;49.70
5868;DHT22;2960;49.142;7.768;2023-05-17T11:04:22;15.40;49.70
5868;DHT22;2960;49.142;7.768;2023-05-17T11:06:51;15.30;49.50
5868;DHT22;2960;49.142;7.768;2023-05-17T11:09:22;15.30;49.20
5868;DHT22;2960;49.142;7.768;2023-05-17T11:12:06;15.30;49.30
5868;DHT22;2960;49.142;7.768;2023-05-17T11:14:47;15.20;49.20
5868;DHT22;2960;49.142;7.768;2023-05-17T11:17:16;15.20;49.30
5868;DHT22;2960;49.142;7.768;2023-05-17T11:20:06;15.10;49.30
5868;DHT22;2960;49.142;7.768;2023-05-17T11:22:38;15.10;49.30
5868;DHT22;2960;49.142;7.768;2023-05-17T11:25:08;15.10;49.30
5868;DHT22;2960;49.142;7.768;2023-05-17T11:27:38;15.10;49.30
5868;DHT22;2960;49.142;7.768;2023-05-17T11:30:15;15.10;49.30
5868;DHT22;2960;49.142;7.768;2023-05-17T11:32:49;15.20;49.40
5868;DHT22;2960;49.142;7.768;2023-05-17T11:35:25;15.20;49.20
5868;DHT22;2960;49.142;7.768;2023-05-17T11:38:15;15.20;49.00
5868;DHT22;2960;49.142;7.768;2023-05-17T11:40:44;15.30;49.10
5868;DHT22;2960;49.142;7.768;2023-05-17T11:43:13;15.30;49.50
5868;DHT22;2960;49.142;7.768;2023-05-17T11:45:46;15.40;49.00
5868;DHT22;2960;49.142;7.768;2023-05-17T11:48:15;15.40;49.50
5868;DHT22;2960;49.142;7.768;2023-05-17T11:50:48;15.50;48.80
5868;DHT22;2960;49.142;7.768;2023-05-17T11:53:17;15.60;48.70
5868;DHT22;2960;49.142;7.768;2023-05-17T11:55:45;15.60;48.50
5868;DHT22;2960;49.142;7.768;2023-05-17T11:58:15;15.70;48.40
5868;DHT22;2960;49.142;7.768;2023-05-17T12:00:43;15.70;48.30
5868;DHT22;2960;49.142;7.768;2023-05-17T12:03:15;15.70;48.30
5868;DHT22;2960;49.142;7.768;2023-05-17T12:05:48;15.80;48.30
5868;DHT22;2960;49.142;7.768;2023-05-17T12:08:17;15.80;48.20
5868;DHT22;2960;49.142;7.768;2023-05-17T12:10:49;15.80;48.20
5868;DHT22;2960;49.142;7.768;2023-05-17T12:13:17;15.90;48.20
5868;DHT22;2960;49.142;7.768;2023-05-17T12:15:46;15.90;48.10
5868;DHT22;2960;49.142;7.768;2023-05-17T12:18:17;16.00;48.20
5868;DHT22;2960;49.142;7.768;2023-05-17T12:20:58;16.00;48.70
5868;DHT22;2960;49.142;7.768;2023-05-17T12:23:28;16.10;48.20
5868;DHT22;2960;49.142;7.768;2023-05-17T12:26:04;16.20;48.20
5868;DHT22;2960;49.142;7.768;2023-05-17T12:28:33;16.40;48.10
5868;DHT22;2960;49.142;7.768;2023-05-17T12:31:01;16.50;47.90
5868;DHT22;2960;49.142;7.768;2023-05-17T12:33:31;16.60;47.90
5868;DHT22;2960;49.142;7.768;2023-05-17T12:36:02;16.70;47.80
5868;DHT22;2960;49.142;7.768;2023-05-17T12:38:31;16.70;47.70
5868;DHT22;2960;49.142;7.768;2023-05-17T12:41:02;16.80;47.60
5868;DHT22;2960;49.142;7.768;2023-05-17T12:43:33;16.80;47.50
5868;DHT22;2960;49.142;7.768;2023-05-17T12:46:04;16.80;47.50
5868;DHT22;2960;49.142;7.768;2023-05-17T12:48:47;16.90;47.50
5868;DHT22;2960;49.142;7.768;2023-05-17T12:51:18;16.90;47.40
5868;DHT22;2960;49.142;7.768;2023-05-17T12:53:49;16.90;47.30
5868;DHT22;2960;49.142;7.768;2023-05-17T12:56:18;16.90;47.30
5868;DHT22;2960;49.142;7.768;2023-05-17T12:59:05;17.00;47.40
5868;DHT22;2960;49.142;7.768;2023-05-17T13:01:38;17.10;47.40
5868;DHT22;2960;49.142;7.768;2023-05-17T13:04:08;17.10;47.30
5868;DHT22;2960;49.142;7.768;2023-05-17T13:06:44;17.20;47.10
5868;DHT22;2960;49.142;7.768;2023-05-17T13:09:12;17.40;47.10
5868;DHT22;2960;49.142;7.768;2023-05-17T13:11:40;17.50;46.90
5868;DHT22;2960;49.142;7.768;2023-05-17T13:14:08;17.50;46.50
5868;DHT22;2960;49.142;7.768;2023-05-17T13:16:37;17.60;46.40
5868;DHT22;2960;49.142;7.768;2023-05-17T13:19:11;17.70;46.90
5868;DHT22;2960;49.142;7.768;2023-05-17T13:21:39;17.80;46.20
5868;DHT22;2960;49.142;7.768;2023-05-17T13:24:09;17.90;46.20
5868;DHT22;2960;49.142;7.768;2023-05-17T13:26:36;17.90;46.00
5868;DHT22;2960;49.142;7.768;2023-05-17T13:29:03;17.90;45.90
5868;DHT22;2960;49.142;7.768;2023-05-17T13:31:30;17.90;45.90
5868;DHT22;2960;49.142;7.768;2023-05-17T13:33:57;17.90;45.90
5868;DHT22;2960;49.142;7.768;2023-05-17T13:36:25;17.90;45.90
5868;DHT22;2960;49.142;7.768;2023-05-17T13:38:52;18.00;45.90
5868;DHT22;2960;49.142;7.768;2023-05-17T13:41:22;18.00;45.90
5868;DHT22;2960;49.142;7.768;2023-05-17T13:43:49;18.00;45.90
5868;DHT22;2960;49.142;7.768;2023-05-17T13:46:16;18.00;45.70
5868;DHT22;2960;49.142;7.768;2023-05-17T13:48:43;18.00;45.60
5868;DHT22;2960;49.142;7.768;2023-05-17T13:51:10;18.00;45.60
5868;DHT22;2960;49.142;7.768;2023-05-17T13:53:37;17.90;45.50
5868;DHT22;2960;49.142;7.768;2023-05-17T13:56:06;17.90;45.50
5868;DHT22;2960;49.142;7.768;2023-05-17T13:58:34;17.90;45.40
5868;DHT22;2960;49.142;7.768;2023-05-17T14:01:01;17.90;45.40
5868;DHT22;2960;49.142;7.768;2023-05-17T14:03:29;17.90;45.40
5868;DHT22;2960;49.142;7.768;2023-05-17T14:05:56;17.80;45.40
5868;DHT22;2960;49.142;7.768;2023-05-17T14:08:23;17.90;45.50
5868;DHT22;2960;49.142;7.768;2023-05-17T14:10:51;17.90;45.40
5868;DHT22;2960;49.142;7.768;2023-05-17T14:13:18;17.90;45.00
5868;DHT22;2960;49.142;7.768;2023-05-17T14:15:46;17.90;44.60
5868;DHT22;2960;49.142;7.768;2023-05-17T14:18:13;18.00;44.70
5868;DHT22;2960;49.142;7.768;2023-05-17T14:20:40;18.00;44.60
5868;DHT22;2960;49.142;7.768;2023-05-17T14:23:08;18.00;44.60
5868;DHT22;2960;49.142;7.768;2023-05-17T14:25:35;18.00;44.60
5868;DHT22;2960;49.142;7.768;2023-05-17T14:28:03;17.90;44.40
5868;DHT22;2960;49.142;7.768;2023-05-17T14:30:30;17.90;44.50
5868;DHT22;2960;49.142;7.768;2023-05-17T14:32:59;17.90;44.50
5868;DHT22;2960;49.142;7.768;2023-05-17T14:35:26;17.90;44.50
5868;DHT22;2960;49.142;7.768;2023-05-17T14:37:54;17.90;44.60
5868;DHT22;2960;49.142;7.768;2023-05-17T14:40:21;17.80;45.10
5868;DHT22;2960;49.142;7.768;2023-05-17T14:42:49;17.90;44.70
5868;DHT22;2960;49.142;7.768;2023-05-17T14:45:16;17.90;44.60
5868;DHT22;2960;49.142;7.768;2023-05-17T14:47:43;17.90;44.50
5868;DHT22;2960;49.142;7.768;2023-05-17T14:50:12;17.90;44.30
5868;DHT22;2960;49.142;7.768;2023-05-17T14:52:39;17.90;44.20
5868;DHT22;2960;49.142;7.768;2023-05-17T14:55:06;17.90;44.80
5868;DHT22;2960;49.142;7.768;2023-05-17T14:57:34;18.00;44.10
5868;DHT22;2960;49.142;7.768;2023-05-17T15:00:01;18.00;44.00
5868;DHT22;2960;49.142;7.768;2023-05-17T15:02:34;18.00;44.00
5868;DHT22;2960;49.142;7.768;2023-05-17T15:05:02;18.10;43.90
5868;DHT22;2960;49.142;7.768;2023-05-17T15:07:31;18.10;43.80
5868;DHT22;2960;49.142;7.768;2023-05-17T15:09:59;18.10;43.80
5868;DHT22;2960;49.142;7.768;2023-05-17T15:12:26;18.10;43.70
5868;DHT22;2960;49.142;7.768;2023-05-17T15:14:53;18.10;43.50
5868;DHT22;2960;49.142;7.768;2023-05-17T15:17:21;18.10;43.50
5868;DHT22;2960;49.142;7.768;2023-05-17T15:19:48;18.00;43.40
5868;DHT22;2960;49.142;7.768;2023-05-17T15:22:15;18.00;43.50
5868;DHT22;2960;49.142;7.768;2023-05-17T15:24:44;18.00;43.50
5868;DHT22;2960;49.142;7.768;2023-05-17T15:27:12;18.00;43.50
5868;DHT22;2960;49.142;7.768;2023-05-17T15:29:41;18.00;43.40
5868;DHT22;2960;49.142;7.768;2023-05-17T15:32:10;18.00;42.90
5868;DHT22;2960;49.142;7.768;2023-05-17T15:34:37;18.00;42.90
5868;DHT22;2960;49.142;7.768;2023-05-17T15:37:05;17.90;42.90
5868;DHT22;2960;49.142;7.768;2023-05-17T15:39:32;17.90;42.90
5868;DHT22;2960;49.142;7.768;2023-05-17T15:42:01;17.90;42.70
5868;DHT22;2960;49.142;7.768;2023-05-17T15:44:28;17.90;42.60
5868;DHT22;2960;49.142;7.768;2023-05-17T15:46:55;17.90;42.60
5868;DHT22;2960;49.142;7.768;2023-05-17T15:49:22;17.90;42.40
5868;DHT22;2960;49.142;7.768;2023-05-17T15:51:50;17.90;42.40
5868;DHT22;2960;49.142;7.768;2023-05-17T15:54:17;17.80;42.40
5868;DHT22;2960;49.142;7.768;2023-05-17T15:56:44;17.80;42.50
5868;DHT22;2960;49.142;7.768;2023-05-17T15:59:15;17.70;42.60
5868;DHT22;2960;49.142;7.768;2023-05-17T16:01:42;17.70;42.70
5868;DHT22;2960;49.142;7.768;2023-05-17T16:04:11;17.70;42.80
5868;DHT22;2960;49.142;7.768;2023-05-17T16:06:38;17.70;43.40
5868;DHT22;2960;49.142;7.768;2023-05-17T16:09:05;17.70;42.80
5868;DHT22;2960;49.142;7.768;2023-05-17T16:11:33;17.70;42.70
5868;DHT22;2960;49.142;7.768;2023-05-17T16:14:00;17.70;42.60
5868;DHT22;2960;49.142;7.768;2023-05-17T16:16:28;17.70;42.50